Latest Weather Observations for Condobolin Airport

IDN60801

Issued at 2:32 pm EDT Monday 8 February 2016 (issued every 30 minutes, with the page automatically refreshed every 10 minutes)

About weather observations | Map of weather stations | Latest weather observations for NSW | Other Formats
Station Details ID: 050137 Name: CONDOBOLIN AIRPORT AWS Lat: -33.07 Lon: 147.21 Height: 192.6 m
Data from the previous 72 hours. | See also: Recent months at Condobolin Airport
Date/Time
EDT
Temp
°C
App
Temp
°C
Dew
Point
Rel
Hum
%
Delta-T
°C
Wind Press
QNH
hPa
Press
MSL
hPa
Rain
since 9 am
mm
Dir
 
Spd
km/h
Gust
km/h
Spd
kts
Gust
kts
08/02:30pm 32.6 28.6 6.7 20 14.2 S 17 30 9 16 1016.8 1015.8 0.0
08/02:00pm 32.3 27.1 5.7 19 14.3 SE 22 32 12 17 1017.3 1016.3 0.0
08/01:42pm 32.4 27.8 5.8 19 14.3 S 19 39 10 21 1017.3 1016.3 0.0
08/01:30pm 32.0 29.0 6.2 20 14.0 SE 11 20 6 11 1017.4 1016.4 0.0
08/01:00pm 30.9 27.8 7.4 23 12.9 SE 13 22 7 12 1017.7 1016.7 0.0
08/12:30pm 30.9 28.6 10.3 28 11.8 E 13 20 7 11 1018.0 1017.0 0.0
08/12:00pm 29.5 28.4 12.0 34 10.3 E 9 17 5 9 1018.5 1017.5 0.0
08/11:30am 28.7 26.5 10.8 33 10.3 SE 13 26 7 14 1018.8 1017.8 0.0
08/11:00am 27.6 27.1 13.9 43 8.2 SSE 9 17 5 9 1019.0 1018.0 0.0
08/10:30am 26.7 26.7 15.1 49 7.1 SE 9 17 5 9 1019.1 1018.1 0.0
08/10:00am 25.9 26.8 15.0 51 6.6 WSW 4 9 2 5 1019.2 1018.2 0.0
08/09:30am 25.0 25.5 15.0 53 6.0 E 6 9 3 5 1019.2 1018.2 0.0
08/09:00am 23.2 23.6 14.7 58 5.1 NE 6 11 3 6 1019.2 1018.2 0.0
08/08:30am 22.9 23.6 15.7 64 4.4 E 6 9 3 5 1019.0 1018.0 0.0
08/08:00am 21.4 21.8 15.3 68 3.6 E 7 11 4 6 1018.8 1017.8 0.0
08/07:30am 20.0 20.8 14.8 72 3.1 SE 4 7 2 4 1018.5 1017.5 0.0
08/07:00am 17.7 19.0 14.0 79 2.1 CALM 0 0 0 0 1018.1 1017.1 0.0
08/06:30am 17.5 17.4 14.0 80 2.0 E 7 9 4 5 1017.7 1016.7 0.0
08/06:00am 17.9 19.0 13.6 76 2.5 CALM 0 6 0 3 1017.3 1016.3 0.0
08/05:30am 18.2 18.2 13.7 75 2.6 ESE 6 9 3 5 1017.0 1016.0 0.0
08/05:00am 18.9 19.9 13.3 70 3.2 CALM 0 0 0 0 1016.7 1015.7 0.0
08/04:30am 20.1 19.9 13.6 66 3.8 ENE 7 9 4 5 1016.6 1015.6 0.0
08/04:00am 21.3 19.6 13.7 62 4.4 NE 15 20 8 11 1016.3 1015.3 0.0
08/03:30am 21.5 19.9 12.9 58 4.9 NNE 13 15 7 8 1016.2 1015.2 0.0
08/03:00am 20.5 18.7 12.0 58 4.8 NNE 13 19 7 10 1016.4 1015.4 0.0
08/02:30am 21.2 18.9 11.8 55 5.3 ENE 15 17 8 9 1016.8 1015.8 0.0
08/02:00am 20.7 19.1 11.6 56 5.1 ENE 11 13 6 7 1016.7 1015.7 0.0
08/01:30am 20.4 20.1 11.6 57 4.9 SSE 4 7 2 4 1016.5 1015.5 0.0
08/01:00am 21.0 19.8 11.6 55 5.3 SSE 9 15 5 8 1016.7 1015.7 0.0
08/12:30am 20.6 20.3 12.8 61 4.5 W 6 7 3 4 1016.2 1015.2 0.0
08/12:00am 20.9 21.5 13.1 61 4.5 WNW 2 9 1 5 1016.3 1015.3 0.0
 
Date/Time
EDT
Temp
°C
App
Temp
°C
Dew
Point
Rel
Hum
%
Delta-T
°C
Wind Press
QNH
hPa
Press
MSL
hPa
Rain
since 9 am
mm
Dir
 
Spd
km/h
Gust
km/h
Spd
kts
Gust
kts
07/11:30pm 21.4 21.5 12.8 58 4.9 WSW 4 9 2 5 1016.1 1015.0 0.0
07/11:00pm 21.7 21.7 12.3 55 5.3 WSW 4 6 2 3 1016.0 1014.9 0.0
07/10:30pm 22.2 21.7 12.2 53 5.7 WNW 6 7 3 4 1015.8 1014.7 0.0
07/10:00pm 23.9 24.4 11.6 46 7.0 CALM 0 0 0 0 1015.5 1014.4 0.0
07/09:30pm 25.1 25.1 9.8 38 8.5 CALM 0 0 0 0 1015.2 1014.1 0.0
07/09:00pm 26.0 24.3 7.6 31 9.9 SSW 6 7 3 4 1014.9 1013.8 0.0
07/08:30pm 27.5 25.7 7.9 29 10.7 ESE 7 9 4 5 1014.4 1013.3 0.0
07/08:00pm 29.1 26.3 5.2 22 12.5 ESE 9 13 5 7 1014.2 1013.1 0.0
07/07:30pm 30.8 26.4 4.5 19 13.7 SE 17 20 9 11 1013.9 1012.9 0.0
07/07:00pm 31.4 27.3 4.2 18 14.2 SSE 15 20 8 11 1013.5 1012.5 0.0
07/06:30pm 31.6 26.4 3.6 17 14.5 SSE 20 30 11 16 1013.5 1012.5 0.0
07/06:00pm 31.9 27.1 5.4 19 14.1 SSE 20 39 11 21 1013.4 1012.4 0.0
07/05:30pm 31.8 27.3 6.1 20 13.9 SE 19 28 10 15 1013.5 1012.5 0.0
07/05:00pm 31.2 27.7 7.0 22 13.2 SE 15 26 8 14 1013.5 1012.5 0.0
07/04:30pm 31.8 28.1 8.1 23 13.2 SE 17 26 9 14 1013.8 1012.8 0.0
07/04:00pm 31.3 27.8 8.9 25 12.6 SE 17 33 9 18 1013.8 1012.8 0.0
07/03:30pm 30.6 28.4 9.5 27 12.0 SSE 11 24 6 13 1014.3 1013.2 0.0
07/03:00pm 30.7 29.6 12.1 32 11.0 S 9 19 5 10 1014.6 1013.5 0.0
07/02:30pm 29.8 27.0 11.3 32 10.8 SSE 17 26 9 14 1015.0 1013.9 0.0
07/02:00pm 30.1 27.9 12.1 33 10.6 SE 15 24 8 13 1015.3 1014.2 0.0
07/01:30pm 29.3 26.5 11.4 33 10.4 S 17 26 9 14 1015.8 1014.7 0.0
07/01:00pm 28.8 27.9 12.7 37 9.5 SSE 9 22 5 12 1015.9 1014.8 0.0
07/12:30pm 28.1 26.6 13.2 39 8.9 SSE 13 17 7 9 1016.3 1015.3 0.0
07/12:00pm 27.4 26.5 12.6 40 8.7 SE 9 15 5 8 1016.8 1015.8 0.0
07/11:30am 27.0 26.2 13.0 42 8.3 ESE 9 15 5 8 1017.0 1016.0 0.0
07/11:00am 25.7 24.3 12.2 43 7.8 NNE 11 15 6 8 1017.3 1016.3 0.0
07/10:30am 25.1 24.2 12.7 46 7.2 ENE 9 15 5 8 1017.5 1016.5 0.0
07/10:00am 24.7 23.4 13.6 50 6.5 ENE 13 19 7 10 1017.7 1016.7 0.0
07/09:30am 24.1 22.4 13.6 52 6.2 ENE 15 20 8 11 1017.7 1016.7 0.0
07/09:00am 23.3 22.3 14.6 58 5.2 E 13 20 7 11 1017.7 1016.7 0.0
07/08:30am 21.9 20.7 14.0 61 4.6 ENE 13 17 7 9 1017.5 1016.5 0.0
07/08:00am 21.1 20.8 14.5 66 3.9 E 9 13 5 7 1017.2 1016.2 0.0
07/07:30am 19.8 20.4 15.2 75 2.7 ESE 6 9 3 5 1016.8 1015.8 0.0
07/07:00am 18.0 18.2 14.7 81 1.9 ESE 7 11 4 6 1016.6 1015.6 0.0
07/06:30am 18.3 18.2 15.0 81 1.9 ESE 9 11 5 6 1016.3 1015.3 0.0
07/06:00am 18.6 19.1 15.1 80 2.1 E 6 7 3 4 1016.0 1014.9 0.0
07/05:30am 18.8 19.1 15.1 79 2.2 ESE 7 9 4 5 1015.6 1014.5 0.0
07/05:00am 19.1 19.1 15.2 78 2.3 E 9 11 5 6 1015.4 1014.3 0.0
07/04:30am 19.6 19.2 15.3 76 2.6 E 11 13 6 7 1015.3 1014.2 0.0
07/04:00am 19.7 19.7 15.1 75 2.7 ESE 9 11 5 6 1015.4 1014.3 0.0
07/03:30am 20.5 20.3 14.8 70 3.4 E 9 11 5 6 1015.4 1014.3 0.0
07/03:00am 21.4 20.6 15.0 67 3.8 ENE 13 17 7 9 1015.2 1014.1 0.0
07/02:30am 21.8 20.7 15.2 66 4.0 ENE 15 19 8 10 1015.1 1014.0 0.0
07/02:00am 22.3 20.8 15.2 64 4.3 NE 17 22 9 12 1015.2 1014.1 0.0
07/01:30am 22.5 21.4 15.4 64 4.3 NE 15 19 8 10 1015.4 1014.3 0.0
07/01:00am 23.2 21.7 15.3 61 4.8 NE 17 24 9 13 1015.4 1014.3 0.0
07/12:30am 23.8 22.2 15.0 57 5.3 NE 17 24 9 13 1015.3 1014.2 0.0
07/12:00am 24.3 22.7 15.0 56 5.6 NNE 17 24 9 13 1015.1 1014.0 0.0
 
Date/Time
EDT
Temp
°C
App
Temp
°C
Dew
Point
Rel
Hum
%
Delta-T
°C
Wind Press
QNH
hPa
Press
MSL
hPa
Rain
since 9 am
mm
Dir
 
Spd
km/h
Gust
km/h
Spd
kts
Gust
kts
06/11:30pm 24.2 23.6 14.6 55 5.7 NE 11 15 6 8 1014.8 1013.7 0.0
06/11:00pm 24.9 24.0 13.8 50 6.6 NE 11 15 6 8 1014.7 1013.6 0.0
06/10:30pm 24.9 24.0 13.8 50 6.6 ENE 11 13 6 7 1014.4 1013.3 0.0
06/10:00pm 26.0 25.2 14.1 47 7.1 ENE 11 13 6 7 1014.2 1013.1 0.0
06/09:30pm 27.2 25.5 13.5 42 8.2 ENE 15 24 8 13 1013.8 1012.8 0.0
06/09:00pm 27.1 25.5 13.8 44 8.0 NNE 15 24 8 13 1013.5 1012.5 0.0
06/08:30pm 26.3 22.4 14.4 48 7.2 N 28 37 15 20 1013.0 1012.0 0.0
06/08:00pm 29.4 26.6 11.5 33 10.4 ESE 17 22 9 12 1012.5 1011.5 0.0
06/07:30pm 30.2 27.5 10.2 29 11.4 SE 15 20 8 11 1012.1 1011.1 0.0
06/07:00pm 30.4 27.0 10.4 29 11.5 SE 19 24 10 13 1011.9 1010.9 0.0
06/06:30pm 30.3 26.8 10.3 29 11.5 SSE 19 24 10 13 1011.7 1010.7 0.0
06/06:00pm 30.9 29.2 11.3 30 11.5 SE 11 17 6 9 1011.7 1010.7 0.0
06/05:30pm 31.5 30.0 11.8 30 11.6 SE 11 19 6 10 1011.7 1010.7 0.0
06/05:00pm 30.8 29.3 10.7 29 11.6 SSW 9 19 5 10 1012.0 1011.0 0.0
06/04:30pm 29.2 27.0 10.8 32 10.6 SE 13 17 7 9 1012.4 1011.4 0.0
06/04:00pm 30.1 29.0 10.6 30 11.2 NW 7 11 4 6 1012.6 1011.6 0.0
06/03:30pm 30.3 29.2 11.8 32 10.9 SW 9 20 5 11 1013.0 1012.0 0.0
06/03:00pm 30.4 29.8 12.3 33 10.7 E 7 20 4 11 1013.4 1012.4 0.0
06/02:30pm 29.6 28.7 11.2 32 10.7 E 7 17 4 9 1013.8 1012.8 0.0
06/02:00pm 28.7 26.9 12.2 36 9.7 SE 13 20 7 11 1014.4 1013.3 0.0
06/01:30pm 28.9 27.5 12.3 36 9.8 E 11 17 6 9 1014.8 1013.7 0.0
06/01:00pm 28.6 27.2 13.3 39 9.1 ESE 13 19 7 10 1015.1 1014.0 0.0
06/12:30pm 27.7 26.7 13.3 41 8.6 ENE 11 20 6 11 1015.6 1014.5 0.0
06/12:00pm 26.9 25.5 13.3 43 8.1 NE 13 24 7 13 1016.1 1015.0 0.0
06/11:30am 26.3 23.5 12.7 43 8.0 ENE 19 30 10 16 1016.4 1015.4 0.0
06/11:00am 25.2 22.1 12.1 44 7.5 E 20 28 11 15 1016.5 1015.5 0.0
06/10:30am 24.5 21.2 12.8 48 6.8 ENE 22 32 12 17 1016.6 1015.6 0.0
06/10:00am 23.5 20.3 11.9 48 6.6 E 20 30 11 16 1016.6 1015.6 0.0
06/09:30am 23.2 19.8 12.5 51 6.2 ESE 22 33 12 18 1016.6 1015.6 0.0
06/09:00am 21.9 18.7 11.9 53 5.7 ESE 20 28 11 15 1016.5 1015.5 0.0
06/08:30am 20.5 17.1 11.4 56 5.1 ESE 20 26 11 14 1016.4 1015.4 0.0
06/08:00am 19.4 16.0 11.4 60 4.4 ESE 20 28 11 15 1016.1 1015.0 0.0
06/07:30am 18.5 15.3 11.3 63 4.0 ESE 19 24 10 13 1015.8 1014.7 0.0
06/07:00am 17.6 15.1 10.9 65 3.6 SE 15 19 8 10 1015.5 1014.4 0.0
06/06:30am 17.4 15.3 11.0 66 3.5 ESE 13 19 7 10 1015.1 1014.0 0.0
06/06:00am 17.6 14.6 10.7 64 3.7 SE 17 24 9 13 1015.0 1013.9 0.0
06/05:30am 17.9 15.2 10.5 62 4.0 ESE 15 20 8 11 1014.9 1013.8 0.0
06/05:00am 18.3 14.8 10.2 59 4.4 ESE 19 26 10 14 1014.8 1013.7 0.0
06/04:30am 18.5 15.4 10.3 59 4.4 ESE 17 24 9 13 1014.9 1013.8 0.0
06/04:00am 18.6 15.9 10.4 59 4.4 ESE 15 20 8 11 1015.0 1013.9 0.0
06/03:30am 19.0 16.2 10.0 56 4.8 ESE 15 20 8 11 1015.1 1014.0 0.0
06/03:00am 19.0 16.4 9.5 54 5.1 ESE 13 20 7 11 1015.4 1014.3 0.0
06/02:30am 19.8 16.1 9.4 51 5.6 ESE 19 24 10 13 1015.5 1014.4 0.0
06/02:00am 20.2 16.3 8.8 48 6.0 ESE 19 28 10 15 1015.5 1014.4 0.0
06/01:30am 21.0 15.8 8.9 46 6.5 ESE 26 37 14 20 1015.5 1014.4 0.0
06/01:00am 21.4 16.6 9.0 45 6.6 ESE 24 35 13 19 1015.7 1014.6 0.0
06/12:30am 21.9 16.7 8.8 43 7.0 ESE 26 35 14 19 1015.7 1014.6 0.0
06/12:00am 22.5 17.7 9.0 42 7.3 ESE 24 37 13 20 1015.5 1014.4 0.0
 
Date/Time
EDT
Temp
°C
App
Temp
°C
Dew
Point
Rel
Hum
%
Delta-T
°C
Wind Press
QNH
hPa
Press
MSL
hPa
Rain
since 9 am
mm
Dir
 
Spd
km/h
Gust
km/h
Spd
kts
Gust
kts
05/11:30pm 23.0 18.2 9.0 41 7.6 E 24 35 13 19 1015.5 1014.4 0.0
05/11:00pm 23.7 18.6 9.3 40 7.9 E 26 35 14 19 1015.3 1014.2 0.0
05/10:30pm 24.9 18.8 9.6 38 8.4 E 32 41 17 22 1015.0 1013.9 0.0
05/10:00pm 25.6 22.5 12.1 43 7.8 E 20 28 11 15 1014.5 1013.4 0.0
05/09:30pm 26.5 23.6 12.2 41 8.3 ENE 19 28 10 15 1014.1 1013.0 0.0
05/09:00pm 27.0 24.1 11.1 37 9.1 ESE 17 28 9 15 1013.5 1012.5 0.0
05/08:30pm 27.9 23.6 10.6 34 9.9 E 24 41 13 22 1013.0 1012.0 0.0
05/08:00pm 28.5 24.4 10.2 32 10.4 ESE 22 32 12 17 1012.5 1011.5 0.0
05/07:30pm 29.3 24.9 10.4 31 10.8 SE 24 33 13 18 1012.0 1011.0 0.0
05/07:00pm 30.1 26.0 10.1 29 11.4 ESE 22 30 12 16 1011.7 1010.7 0.0
05/06:30pm 30.3 25.6 9.2 27 11.9 ESE 24 35 13 19 1011.6 1010.6 0.0
05/06:00pm 30.5 26.2 9.4 27 11.9 ESE 22 32 12 17 1011.6 1010.6 0.0
05/05:30pm 31.0 26.7 9.3 26 12.3 SE 22 32 12 17 1011.7 1010.7 0.0
05/05:00pm 31.0 26.3 9.3 26 12.3 SE 24 35 13 19 1011.9 1010.9 0.0
05/04:30pm 30.2 25.9 8.0 25 12.3 ESE 20 30 11 16 1012.2 1011.2 0.0
05/04:00pm 30.0 26.6 7.8 25 12.2 SE 15 20 8 11 1012.5 1011.5 0.0
05/03:30pm 29.9 26.2 9.4 28 11.6 ESE 19 32 10 17 1013.0 1012.0 0.0
05/03:00pm 30.0 27.1 9.5 28 11.6 ESE 15 22 8 12 1013.4 1012.4 0.0

Other Formats:

Comma delimited format used in spreadsheet applications
http://www.bom.gov.au/fwo/IDN60801/IDN60801.95708.axf

JavaScript Object Notation format (JSON) in row-major order
http://www.bom.gov.au/fwo/IDN60801/IDN60801.95708.json